Time;durP1;ratioP1;P1;durP2;ratioP2;P2;SDS_P1;SDS_P2;PMS_P1;PMS_P2;Temp;Humidity;BMP_temperature;BMP_pressure;BME280_temperature;BME280_humidity;BME280_pressure;Samples;Min_cycle;Max_cycle;Signal;HPM_P1;HPM_P2
2023/09/11 00:00:10;;;;;;;15.30;7.60;;;;;;;25.20;100.00;101088.78;4987935;28;20572;-46
2023/09/11 00:02:36;;;;;;;13.88;7.70;;;;;;;25.19;100.00;101070.16;4976749;28;20197;-47
2023/09/11 00:05:04;;;;;;;15.23;7.82;;;;;;;25.19;100.00;101075.88;4989510;28;20054;-47
2023/09/11 00:07:30;;;;;;;14.23;8.20;;;;;;;25.20;100.00;101070.94;4984124;28;20050;-45
2023/09/11 00:09:57;;;;;;;13.05;7.50;;;;;;;25.20;100.00;101068.09;4987888;28;20102;-51
2023/09/11 00:12:23;;;;;;;13.55;7.68;;;;;;;25.20;100.00;101059.53;4989512;28;20057;-47
2023/09/11 00:14:50;;;;;;;15.48;7.63;;;;;;;25.21;100.00;101059.03;4986386;28;20053;-52
2023/09/11 00:17:16;;;;;;;14.20;7.65;;;;;;;25.23;100.00;101058.53;4987453;28;20042;-48
2023/09/11 00:19:43;;;;;;;14.07;6.90;;;;;;;25.70;100.00;101052.78;4996113;28;20054;-49
2023/09/11 00:22:09;;;;;;;12.82;7.63;;;;;;;26.11;100.00;101048.19;4986951;28;20054;-47
2023/09/11 00:24:36;;;;;;;12.38;7.22;;;;;;;26.20;100.00;101050.78;4989714;28;20050;-46
2023/09/11 00:27:03;;;;;;;12.80;7.50;;;;;;;26.20;100.00;101045.09;4992368;28;20046;-47
2023/09/11 00:29:29;;;;;;;12.93;6.85;;;;;;;26.20;100.00;101047.94;4988402;28;20149;-49
2023/09/11 00:31:56;;;;;;;13.82;6.78;;;;;;;26.17;100.00;101048.97;4984644;28;20101;-47
2023/09/11 00:34:22;;;;;;;13.18;6.72;;;;;;;26.17;100.00;101045.31;4988048;28;20116;-48
2023/09/11 00:36:49;;;;;;;12.43;6.80;;;;;;;26.17;100.00;101046.13;4989267;28;20137;-47
2023/09/11 00:39:15;;;;;;;13.10;6.75;;;;;;;26.16;100.00;101041.69;4988088;28;20477;-51
2023/09/11 00:41:43;;;;;;;11.30;6.45;;;;;;;26.15;100.00;101039.34;4989669;28;20105;-47
2023/09/11 00:44:09;;;;;;;11.80;6.43;;;;;;;26.14;100.00;101035.75;4988826;28;20178;-47
2023/09/11 00:46:36;;;;;;;11.32;6.55;;;;;;;26.13;100.00;101037.03;5002151;28;20072;-48
2023/09/11 00:49:03;;;;;;;12.30;7.25;;;;;;;26.13;100.00;101042.72;4992959;28;20046;-46
2023/09/11 00:51:29;;;;;;;14.95;6.80;;;;;;;26.15;100.00;101036.50;4990643;28;20045;-48
2023/09/11 00:53:56;;;;;;;12.15;7.05;;;;;;;26.16;100.00;101035.22;4987210;28;20082;-47
2023/09/11 00:56:23;;;;;;;12.80;6.72;;;;;;;26.17;100.00;101042.47;4988804;28;20145;-47
2023/09/11 00:58:50;;;;;;;11.60;6.53;;;;;;;26.17;100.00;101040.41;4988836;28;20046;-48
2023/09/11 01:01:18;;;;;;;10.60;6.10;;;;;;;26.19;100.00;101034.97;4990382;28;20058;-47
2023/09/11 01:03:46;;;;;;;10.25;6.00;;;;;;;26.19;100.00;101034.97;4988923;28;20054;-45
2023/09/11 01:06:13;;;;;;;10.88;6.32;;;;;;;26.21;100.00;101035.22;4987941;28;20165;-45
2023/09/11 01:08:39;;;;;;;12.23;6.63;;;;;;;26.22;100.00;101033.91;4982509;28;20147;-46
2023/09/11 01:11:06;;;;;;;11.25;6.43;;;;;;;26.23;100.00;101026.91;4996663;28;20085;-45
2023/09/11 01:13:33;;;;;;;11.35;6.10;;;;;;;26.21;100.00;101023.03;4987401;28;20054;-45
2023/09/11 01:16:09;;;;;;;11.27;6.30;;;;;;;26.22;100.00;101019.69;4986584;28;20108;-45
2023/09/11 01:19:07;;;;;;;11.15;6.65;;;;;;;26.21;100.00;101023.84;4986263;28;20133;-46
2023/09/11 01:21:55;;;;;;;11.52;5.93;;;;;;;26.24;100.00;101022.00;4992390;28;20574;-46
2023/09/11 01:24:53;;;;;;;14.45;6.47;;;;;;;26.28;100.00;101020.44;4987639;28;20054;-47
2023/09/11 01:27:22;;;;;;;12.57;6.63;;;;;;;26.30;100.00;101026.41;4988610;28;20073;-47
2023/09/11 01:29:51;;;;;;;12.77;6.72;;;;;;;26.34;100.00;101024.09;4986773;28;20129;-46
2023/09/11 01:32:21;;;;;;;15.02;7.68;;;;;;;26.39;100.00;101029.00;4988535;28;20058;-48
2023/09/11 01:34:50;;;;;;;15.07;7.03;;;;;;;26.38;100.00;101016.03;4989100;28;20042;-46
2023/09/11 01:37:19;;;;;;;14.55;7.53;;;;;;;26.37;100.00;101025.91;4988928;28;20081;-45
2023/09/11 01:39:46;;;;;;;14.15;7.65;;;;;;;26.36;100.00;101020.72;4988746;28;20050;-45
2023/09/11 01:42:18;;;;;;;14.63;7.95;;;;;;;26.34;100.00;101018.38;4988178;28;20051;-46
2023/09/11 01:44:50;;;;;;;14.95;7.78;;;;;;;26.30;100.00;101022.78;4991352;28;20120;-46
2023/09/11 01:47:21;;;;;;;12.77;7.13;;;;;;;26.27;100.00;101013.22;4992690;28;20050;-46
2023/09/11 01:49:50;;;;;;;14.27;7.38;;;;;;;26.25;100.00;101021.50;4992560;28;20060;-48
2023/09/11 01:52:17;;;;;;;13.93;8.15;;;;;;;26.24;100.00;101014.25;4992585;28;20081;-46
2023/09/11 01:54:43;;;;;;;12.68;7.35;;;;;;;26.22;100.00;101016.81;4992523;28;20061;-46
2023/09/11 01:57:13;;;;;;;12.88;7.38;;;;;;;26.19;100.00;101011.41;4992337;28;20130;-45
2023/09/11 01:59:39;;;;;;;14.90;7.43;;;;;;;26.19;100.00;101005.72;4992126;28;20113;-45
2023/09/11 02:02:06;;;;;;;15.10;8.25;;;;;;;26.20;100.00;101008.03;4991769;28;20062;-45
2023/09/11 02:04:33;;;;;;;14.52;7.50;;;;;;;26.15;100.00;101005.94;4992149;28;20365;-47
2023/09/11 02:06:59;;;;;;;16.60;7.82;;;;;;;26.12;100.00;101006.22;4992695;28;20128;-47
2023/09/11 02:09:26;;;;;;;12.13;7.03;;;;;;;26.14;100.00;101007.25;4992725;28;20584;-48
2023/09/11 02:11:52;;;;;;;17.27;8.20;;;;;;;26.15;100.00;101008.00;4992258;28;20125;-45
2023/09/11 02:14:19;;;;;;;12.70;7.20;;;;;;;26.08;100.00;101003.63;4992272;28;20456;-49
2023/09/11 02:16:51;;;;;;;15.10;7.68;;;;;;;26.14;100.00;101007.25;4992502;28;20100;-48
2023/09/11 02:19:18;;;;;;;13.10;7.32;;;;;;;26.11;100.00;100994.03;4992582;28;20042;-45
2023/09/11 02:21:50;;;;;;;13.65;7.20;;;;;;;26.06;100.00;101000.50;4992072;28;20156;-46
2023/09/11 02:24:16;;;;;;;15.48;7.93;;;;;;;26.06;100.00;100994.81;4991927;28;20130;-47
2023/09/11 02:26:43;;;;;;;14.68;7.72;;;;;;;26.04;100.00;101005.97;4990642;28;20078;-48
2023/09/11 02:29:09;;;;;;;15.68;7.50;;;;;;;26.04;100.00;100999.47;4990918;28;20050;-46
2023/09/11 02:31:36;;;;;;;13.35;7.35;;;;;;;26.02;100.00;100991.44;4991652;28;20054;-48
2023/09/11 02:34:02;;;;;;;14.02;6.90;;;;;;;26.01;100.00;100991.94;4992045;28;20134;-48
2023/09/11 02:36:29;;;;;;;14.38;7.95;;;;;;;25.99;100.00;100989.59;4991489;28;20086;-46
2023/09/11 02:38:56;;;;;;;13.50;7.20;;;;;;;26.00;100.00;100990.38;4990965;28;20101;-46
2023/09/11 02:41:22;;;;;;;12.63;7.65;;;;;;;26.03;100.00;100986.53;4990928;28;20132;-46
2023/09/11 02:43:49;;;;;;;17.00;7.78;;;;;;;26.03;100.00;101000.78;4991774;28;20046;-45
2023/09/11 02:46:18;;;;;;;13.20;7.55;;;;;;;26.01;100.00;100989.09;4991903;28;20057;-46
2023/09/11 02:48:51;;;;;;;16.15;7.78;;;;;;;26.00;100.00;100991.19;4991554;28;20085;-47
2023/09/11 02:51:17;;;;;;;13.85;7.53;;;;;;;26.00;100.00;100990.38;4990095;28;20084;-45
2023/09/11 02:53:44;;;;;;;16.40;7.70;;;;;;;25.97;100.00;100980.81;4990740;28;20481;-46
2023/09/11 02:56:10;;;;;;;12.20;6.70;;;;;;;25.98;100.00;100990.91;4990702;28;20109;-47
2023/09/11 02:58:37;;;;;;;16.02;7.70;;;;;;;25.97;100.00;100989.38;4990533;28;20046;-45
2023/09/11 03:01:07;;;;;;;10.98;7.00;;;;;;;25.92;100.00;100984.44;4990259;28;21162;-46
2023/09/11 03:03:37;;;;;;;13.68;7.32;;;;;;;25.99;100.00;100972.50;4991120;28;20077;-47
2023/09/11 03:06:03;;;;;;;12.88;7.43;;;;;;;25.95;100.00;100988.34;4988553;28;20068;-49
2023/09/11 03:08:32;;;;;;;14.75;7.90;;;;;;;25.95;100.00;100983.41;4991229;28;20062;-46
2023/09/11 03:11:06;;;;;;;16.80;7.57;;;;;;;25.89;100.00;100982.63;4992132;28;20046;-49
2023/09/11 03:13:33;;;;;;;12.10;7.18;;;;;;;25.90;100.00;100978.50;4991578;28;20100;-47
2023/09/11 03:16:14;;;;;;;13.63;7.65;;;;;;;25.86;100.00;100977.19;4990812;28;20058;-48
2023/09/11 03:18:41;;;;;;;15.32;7.30;;;;;;;25.89;100.00;100979.00;4983625;28;20050;-48
2023/09/11 03:21:14;;;;;;;18.25;7.50;;;;;;;25.89;100.00;100967.63;4992336;28;20054;-46
2023/09/11 03:23:41;;;;;;;15.20;7.57;;;;;;;25.90;100.00;100980.56;4990797;28;20575;-46
2023/09/11 03:26:17;;;;;;;14.35;7.20;;;;;;;25.88;100.00;100975.38;4991235;28;20054;-46
2023/09/11 03:28:50;;;;;;;15.68;7.65;;;;;;;25.89;100.00;100964.75;5000353;28;20082;-49
2023/09/11 03:31:16;;;;;;;16.52;7.82;;;;;;;25.91;100.00;100976.41;4993121;28;20156;-45
2023/09/11 03:33:44;;;;;;;16.88;7.50;;;;;;;25.90;100.00;100972.00;4990821;28;20082;-46
2023/09/11 03:36:17;;;;;;;13.20;7.20;;;;;;;25.87;100.00;100973.03;4990798;28;20409;-46
2023/09/11 03:38:44;;;;;;;13.10;7.10;;;;;;;25.89;100.00;100965.53;4996079;28;20195;-46
2023/09/11 03:41:10;;;;;;;12.25;7.35;;;;;;;25.85;100.00;100965.00;4991891;28;20503;-46
2023/09/11 03:43:37;;;;;;;13.93;7.45;;;;;;;25.89;100.00;100970.47;4998465;28;20046;-45
2023/09/11 03:46:04;;;;;;;15.07;7.40;;;;;;;25.88;100.00;100957.50;4992272;28;20112;-46
2023/09/11 03:48:30;;;;;;;14.43;7.32;;;;;;;25.84;100.00;100960.63;4989791;28;20464;-47
2023/09/11 03:50:57;;;;;;;15.43;7.53;;;;;;;25.88;100.00;100963.19;4990674;28;20054;-47
2023/09/11 03:53:23;;;;;;;14.93;8.10;;;;;;;25.86;100.00;100948.72;4989237;28;20112;-47
2023/09/11 03:55:50;;;;;;;15.73;7.78;;;;;;;25.84;100.00;100949.22;4989084;28;20077;-46
2023/09/11 03:58:19;;;;;;;11.88;7.22;;;;;;;25.87;100.00;100947.41;4989823;28;20172;-45
2023/09/11 04:00:46;;;;;;;14.52;7.65;;;;;;;25.86;100.00;100940.94;4990020;28;20525;-47
2023/09/11 04:03:12;;;;;;;13.68;7.65;;;;;;;25.83;100.00;100939.13;4998370;28;20511;-46
2023/09/11 04:05:39;;;;;;;17.23;7.78;;;;;;;25.85;100.00;100942.22;4992271;28;20451;-46
2023/09/11 04:08:08;;;;;;;15.90;8.05;;;;;;;25.84;100.00;100939.91;4997087;28;20500;-45
2023/09/11 04:10:35;;;;;;;14.43;7.93;;;;;;;25.83;100.00;100936.28;4988104;28;20050;-46
2023/09/11 04:13:01;;;;;;;14.73;7.80;;;;;;;25.78;100.00;100933.44;4990551;28;20052;-46
2023/09/11 04:15:31;;;;;;;14.25;7.28;;;;;;;25.78;100.00;100939.13;4991198;28;20117;-46
2023/09/11 04:17:57;;;;;;;16.17;8.13;;;;;;;25.82;100.00;100937.56;4997842;28;20145;-46
2023/09/11 04:20:24;;;;;;;15.75;7.50;;;;;;;25.79;100.00;100930.06;4991294;28;20042;-46
2023/09/11 04:22:51;;;;;;;15.32;7.85;;;;;;;25.84;100.00;100934.19;4989182;28;20105;-46
2023/09/11 04:25:17;;;;;;;15.45;7.30;;;;;;;25.78;100.00;100933.44;4990309;28;20129;-45
2023/09/11 04:27:44;;;;;;;11.82;7.22;;;;;;;25.81;100.00;100935.22;4987575;28;20100;-46
2023/09/11 04:30:11;;;;;;;14.18;6.97;;;;;;;25.82;100.00;100934.72;4988608;28;20042;-47
2023/09/11 04:32:40;;;;;;;13.63;7.68;;;;;;;25.83;100.00;100932.66;4990066;28;20096;-46
2023/09/11 04:35:07;;;;;;;15.85;7.60;;;;;;;25.86;100.00;100925.94;4988284;28;20133;-45
2023/09/11 04:37:34;;;;;;;12.98;7.18;;;;;;;25.77;100.00;100932.66;4989206;28;20129;-46
2023/09/11 04:40:01;;;;;;;15.85;8.25;;;;;;;25.78;100.00;100939.13;4989874;28;20042;-45
2023/09/11 04:42:32;;;;;;;14.60;6.88;;;;;;;25.77;100.00;100941.19;4988910;28;20046;-46
2023/09/11 04:44:59;;;;;;;12.63;7.32;;;;;;;25.83;100.00;100941.19;4986736;28;20612;-46
2023/09/11 04:47:30;;;;;;;15.45;7.15;;;;;;;25.79;100.00;100932.91;4986115;28;20136;-45
2023/09/11 04:49:58;;;;;;;12.05;6.85;;;;;;;25.77;100.00;100932.66;4994546;28;20042;-47
2023/09/11 04:52:27;;;;;;;13.48;7.63;;;;;;;25.80;100.00;100933.69;4989168;28;20096;-45
2023/09/11 04:54:54;;;;;;;15.32;7.30;;;;;;;25.79;100.00;100929.28;4990138;28;20137;-47
2023/09/11 04:57:20;;;;;;;16.00;7.53;;;;;;;25.75;100.00;100935.25;4988869;28;20109;-45
2023/09/11 04:59:47;;;;;;;14.63;7.88;;;;;;;25.77;100.00;100923.31;4985661;28;20138;-46
2023/09/11 05:02:14;;;;;;;16.42;7.43;;;;;;;25.80;100.00;100925.16;4985860;28;20046;-47
2023/09/11 05:04:42;;;;;;;13.18;7.45;;;;;;;25.75;100.00;100932.38;4987728;28;20652;-45
2023/09/11 05:07:08;;;;;;;15.15;7.32;;;;;;;25.78;100.00;100931.34;4988914;28;20054;-45
2023/09/11 05:09:35;;;;;;;14.10;7.85;;;;;;;25.82;100.00;100929.03;4995609;28;20477;-45
2023/09/11 05:12:01;;;;;;;15.38;8.00;;;;;;;25.86;100.00;100932.41;4986996;28;20050;-44
2023/09/11 05:14:28;;;;;;;20.60;9.48;;;;;;;25.84;100.00;100934.97;4988862;28;20145;-45
2023/09/11 05:16:54;;;;;;;16.70;8.38;;;;;;;25.80;100.00;100930.84;4988456;28;20361;-47
2023/09/11 05:19:21;;;;;;;15.10;7.57;;;;;;;25.78;100.00;100931.34;4987247;28;20494;-46
2023/09/11 05:21:47;;;;;;;15.85;8.27;;;;;;;25.75;100.00;100926.69;4988841;28;20123;-44
2023/09/11 05:24:14;;;;;;;15.02;8.25;;;;;;;25.81;100.00;100932.38;4988909;28;20078;-45
2023/09/11 05:26:43;;;;;;;16.52;8.85;;;;;;;25.83;100.00;100942.00;4988157;28;20859;-48
2023/09/11 05:29:11;;;;;;;18.27;8.73;;;;;;;25.73;100.00;100939.91;4993306;28;20069;-44
2023/09/11 05:31:37;;;;;;;17.42;8.73;;;;;;;25.75;100.00;100923.09;4988337;28;20046;-44
2023/09/11 05:34:04;;;;;;;15.15;8.38;;;;;;;25.73;100.00;100932.16;4987067;28;20082;-47
2023/09/11 05:36:31;;;;;;;17.70;8.20;;;;;;;25.77;100.00;100921.28;4988053;28;20050;-46
2023/09/11 05:38:57;;;;;;;16.25;8.45;;;;;;;25.76;100.00;100925.41;4986208;28;20148;-46
2023/09/11 05:41:25;;;;;;;18.88;9.00;;;;;;;25.80;100.00;100928.78;4984481;28;20104;-46
2023/09/11 05:43:52;;;;;;;16.23;8.88;;;;;;;25.80;100.00;100928.78;4997640;28;20133;-45
2023/09/11 05:46:24;;;;;;;16.42;8.32;;;;;;;25.72;100.00;100932.66;4990036;28;20054;-45
2023/09/11 05:48:51;;;;;;;50.42;10.15;;;;;;;25.76;100.00;100933.97;4988792;28;20140;-46
2023/09/11 05:51:19;;;;;;;15.88;8.65;;;;;;;25.73;100.00;100931.34;4988902;28;20043;-46
2023/09/11 05:53:46;;;;;;;20.15;8.45;;;;;;;25.55;100.00;100935.47;4986069;28;20046;-45
2023/09/11 05:56:12;;;;;;;15.80;8.75;;;;;;;25.67;100.00;100942.75;4987187;28;20042;-47
2023/09/11 05:58:47;;;;;;;18.33;8.30;;;;;;;25.62;100.00;100937.81;4987763;28;20109;-46
2023/09/11 06:01:14;;;;;;;19.02;9.05;;;;;;;25.65;100.00;100939.63;4989383;28;20500;-47
2023/09/11 06:03:41;;;;;;;18.50;10.35;;;;;;;25.60;100.00;100936.78;4988742;28;20154;-46
2023/09/11 06:06:08;;;;;;;23.08;10.93;;;;;;;25.73;100.00;100940.69;4985016;28;20050;-46
2023/09/11 06:08:34;;;;;;;18.95;9.07;;;;;;;25.67;100.00;100930.56;4988361;28;20050;-46
2023/09/11 06:11:01;;;;;;;19.30;9.35;;;;;;;25.60;100.00;100937.56;4987863;28;20058;-46
2023/09/11 06:13:28;;;;;;;18.23;9.32;;;;;;;25.59;100.00;100933.19;4986392;28;20081;-47
2023/09/11 06:15:54;;;;;;;22.02;9.23;;;;;;;25.65;100.00;100941.72;4994673;28;20096;-48
2023/09/11 06:18:21;;;;;;;19.67;9.40;;;;;;;25.63;100.00;100941.44;4990486;28;20054;-46
2023/09/11 06:20:47;;;;;;;28.08;11.80;;;;;;;25.66;100.00;100946.13;4988704;28;20068;-46
2023/09/11 06:23:14;;;;;;;19.30;10.88;;;;;;;25.67;100.00;100942.75;4992858;28;20080;-45
2023/09/11 06:25:40;;;;;;;28.70;11.00;;;;;;;25.62;100.00;100946.34;4988554;28;20077;-46
2023/09/11 06:28:07;;;;;;;21.80;10.18;;;;;;;25.57;100.00;100938.59;4987735;28;20054;-48
2023/09/11 06:30:34;;;;;;;24.92;12.68;;;;;;;25.61;100.00;100938.38;4987420;28;20054;-46
2023/09/11 06:33:00;;;;;;;27.67;12.27;;;;;;;25.60;100.00;100942.47;4995695;28;20180;-47
2023/09/11 06:35:27;;;;;;;25.50;11.30;;;;;;;25.58;100.00;100948.69;4999391;28;20107;-49
2023/09/11 06:37:53;;;;;;;28.38;12.23;;;;;;;25.59;100.00;100952.31;4989430;28;20065;-46
2023/09/11 06:40:20;;;;;;;27.27;12.48;;;;;;;25.62;100.00;100952.06;4986080;28;20089;-50
2023/09/11 06:42:49;;;;;;;21.70;11.25;;;;;;;25.59;100.00;100953.09;4990145;28;20077;-47
2023/09/11 06:45:22;;;;;;;24.05;10.55;;;;;;;25.54;100.00;100950.22;4992093;28;20077;-47
2023/09/11 06:47:48;;;;;;;26.05;11.07;;;;;;;25.55;100.00;100951.81;4991661;28;20046;-48
2023/09/11 06:50:15;;;;;;;21.00;10.23;;;;;;;25.53;100.00;100949.47;4991729;28;20057;-46
2023/09/11 06:52:41;;;;;;;20.73;11.07;;;;;;;25.56;100.00;100950.50;4995274;28;20120;-46
2023/09/11 06:55:08;;;;;;;21.65;11.50;;;;;;;25.55;100.00;100955.41;4991705;28;20108;-48
2023/09/11 06:57:41;;;;;;;24.33;10.77;;;;;;;25.56;100.00;100948.44;4994457;28;20515;-48
2023/09/11 07:00:10;;;;;;;20.90;10.13;;;;;;;25.54;100.00;100947.38;4995383;28;20050;-46
2023/09/11 07:02:48;;;;;;;22.23;10.80;;;;;;;25.53;100.00;100943.00;4993362;28;20073;-47
2023/09/11 07:05:23;;;;;;;21.63;11.18;;;;;;;25.56;100.00;100947.66;4991304;28;20058;-45
2023/09/11 07:07:52;;;;;;;22.35;10.77;;;;;;;25.55;100.00;100946.88;4999629;28;20140;-46
2023/09/11 07:10:22;;;;;;;26.75;10.70;;;;;;;25.53;100.00;100951.53;5000166;28;20444;-45
2023/09/11 07:13:05;;;;;;;24.85;10.07;;;;;;;25.54;100.00;100938.84;5001882;28;20061;-48
2023/09/11 07:15:32;;;;;;;24.48;10.88;;;;;;;25.54;100.00;100953.88;4991032;28;20060;-47
2023/09/11 07:18:01;;;;;;;21.42;10.63;;;;;;;25.54;100.00;100941.69;4991079;28;20054;-47
2023/09/11 07:20:28;;;;;;;22.95;9.95;;;;;;;25.53;100.00;100945.84;4990909;28;20524;-47
2023/09/11 07:22:54;;;;;;;23.27;10.20;;;;;;;25.52;100.00;100936.50;4994185;28;20054;-46
2023/09/11 07:25:23;;;;;;;16.50;8.77;;;;;;;25.54;100.00;100939.63;4993170;28;20054;-45
2023/09/11 07:27:53;;;;;;;18.27;10.00;;;;;;;25.53;100.00;100935.25;4989735;28;20050;-47
2023/09/11 07:30:20;;;;;;;20.45;9.88;;;;;;;25.52;100.00;100939.34;4993449;28;20054;-44
2023/09/11 07:32:51;;;;;;;20.60;9.93;;;;;;;25.53;100.00;100935.25;4994424;28;20046;-45
2023/09/11 07:35:17;;;;;;;20.35;9.43;;;;;;;25.54;100.00;100933.94;4990746;28;20138;-45
2023/09/11 07:37:44;;;;;;;19.83;9.85;;;;;;;25.52;100.00;100941.44;4990630;28;20069;-47
2023/09/11 07:40:11;;;;;;;19.25;9.68;;;;;;;25.51;100.00;100937.81;4994778;28;20046;-45
2023/09/11 07:42:38;;;;;;;20.48;9.57;;;;;;;25.52;100.00;100938.59;4982874;28;20150;-47
2023/09/11 07:45:11;;;;;;;19.08;9.10;;;;;;;25.51;100.00;100934.22;4991124;28;20112;-46
2023/09/11 07:47:37;;;;;;;19.05;9.30;;;;;;;25.51;100.00;100939.91;4982661;28;20057;-46
2023/09/11 07:50:05;;;;;;;19.70;10.38;;;;;;;25.52;100.00;100930.81;4992637;28;20053;-46
2023/09/11 07:52:35;;;;;;;18.30;9.57;;;;;;;25.51;100.00;100934.97;4990699;28;20054;-46
2023/09/11 07:55:02;;;;;;;19.33;9.95;;;;;;;25.50;100.00;100922.03;4990869;28;20077;-47
2023/09/11 07:57:30;;;;;;;15.73;8.65;;;;;;;25.51;100.00;100923.59;4990409;28;20073;-46
2023/09/11 08:00:04;;;;;;;18.20;9.68;;;;;;;25.51;100.00;100917.88;4990705;28;20054;-46
2023/09/11 08:02:33;;;;;;;17.05;9.15;;;;;;;25.50;100.00;100921.25;4990839;28;20508;-46
2023/09/11 08:05:00;;;;;;;18.17;8.98;;;;;;;25.54;100.00;100916.06;4990212;28;20050;-46
2023/09/11 08:07:32;;;;;;;20.92;9.40;;;;;;;25.53;100.00;100921.00;4990037;28;20058;-45
2023/09/11 08:09:59;;;;;;;18.45;9.45;;;;;;;25.54;100.00;100918.91;4990368;28;20086;-47
2023/09/11 08:12:26;;;;;;;20.00;9.48;;;;;;;25.54;100.00;100936.00;4990285;28;20058;-47
2023/09/11 08:14:52;;;;;;;17.05;8.90;;;;;;;25.53;100.00;100928.75;4989002;28;20509;-46
2023/09/11 08:17:19;;;;;;;15.50;8.68;;;;;;;25.49;100.00;100931.88;4994696;28;20065;-44
2023/09/11 08:19:49;;;;;;;19.45;10.95;;;;;;;25.46;100.00;100938.59;4990196;28;20144;-46
2023/09/11 08:22:19;;;;;;;17.42;7.97;;;;;;;25.52;100.00;100939.34;4989853;28;20129;-46
2023/09/11 08:24:49;;;;;;;17.95;9.13;;;;;;;25.54;100.00;100930.31;4990255;28;20050;-45
2023/09/11 08:27:16;;;;;;;18.13;8.30;;;;;;;25.53;100.00;100929.56;4988499;28;20152;-46
2023/09/11 08:29:43;;;;;;;17.45;8.43;;;;;;;25.53;100.00;100920.22;4994537;28;20151;-50
2023/09/11 08:32:09;;;;;;;17.52;8.82;;;;;;;25.54;100.00;100927.47;4989922;28;20676;-47
2023/09/11 08:34:36;;;;;;;16.80;8.32;;;;;;;25.53;100.00;100918.16;4989635;28;20054;-49
2023/09/11 08:37:03;;;;;;;17.67;8.55;;;;;;;25.49;100.00;100916.84;4989764;28;20074;-46
2023/09/11 08:39:30;;;;;;;19.13;8.82;;;;;;;25.51;100.00;100920.75;4989248;28;20070;-46
2023/09/11 08:41:58;;;;;;;15.68;8.23;;;;;;;25.51;100.00;100929.28;4989654;28;20054;-47
2023/09/11 08:44:40;;;;;;;15.85;8.35;;;;;;;25.52;100.00;100930.06;4995063;28;20089;-46
2023/09/11 08:47:09;;;;;;;17.55;8.85;;;;;;;25.50;100.00;100922.03;4989636;28;20058;-47
2023/09/11 08:49:44;;;;;;;16.50;8.40;;;;;;;25.54;100.00;100933.94;4989473;28;20082;-48
2023/09/11 08:52:16;;;;;;;21.55;10.00;;;;;;;25.51;100.00;100939.91;4989594;28;20047;-46
2023/09/11 08:54:52;;;;;;;18.83;9.68;;;;;;;25.51;100.00;100926.44;4990783;28;20092;-46
2023/09/11 08:57:21;;;;;;;14.90;8.07;;;;;;;25.50;100.00;100927.72;4995913;28;20116;-47
2023/09/11 08:59:56;;;;;;;15.77;8.18;;;;;;;25.53;100.00;100929.56;4989468;28;20042;-48
2023/09/11 09:02:24;;;;;;;15.57;8.13;;;;;;;25.52;100.00;100922.28;4988139;28;20046;-46
2023/09/11 09:04:53;;;;;;;16.42;8.73;;;;;;;25.51;100.00;100920.75;4995093;28;20046;-46
2023/09/11 09:07:21;;;;;;;14.20;7.90;;;;;;;25.53;100.00;100918.16;4990433;28;20500;-45
2023/09/11 09:09:49;;;;;;;14.95;8.10;;;;;;;25.51;100.00;100917.88;4989378;28;20042;-45
2023/09/11 09:12:16;;;;;;;15.68;8.05;;;;;;;25.55;100.00;100917.66;4991596;28;20058;-45
2023/09/11 09:14:43;;;;;;;17.38;8.30;;;;;;;25.56;100.00;100914.28;4987512;28;20085;-45
2023/09/11 09:17:10;;;;;;;18.30;8.40;;;;;;;25.55;100.00;100907.03;4981274;28;20820;-46
2023/09/11 09:19:36;;;;;;;16.23;8.05;;;;;;;25.50;100.00;100910.66;4991946;28;20158;-45
2023/09/11 09:22:05;;;;;;;16.98;8.98;;;;;;;25.52;100.00;100910.91;4989058;28;20050;-45
2023/09/11 09:24:33;;;;;;;12.88;7.32;;;;;;;25.54;100.00;100910.38;4991951;28;20113;-44
2023/09/11 09:27:02;;;;;;;16.92;8.27;;;;;;;25.54;100.00;100911.16;4987963;28;20144;-47
2023/09/11 09:29:37;;;;;;;16.77;9.30;;;;;;;25.53;100.00;100908.84;4988646;28;20496;-45
2023/09/11 09:32:05;;;;;;;17.98;8.73;;;;;;;25.54;100.00;100910.38;4989063;28;20056;-48
2023/09/11 09:34:34;;;;;;;13.20;6.80;;;;;;;25.56;100.00;100911.44;4986989;28;20050;-47
2023/09/11 09:37:00;;;;;;;14.75;7.43;;;;;;;25.55;100.00;100904.16;4991207;28;20508;-47
2023/09/11 09:39:28;;;;;;;19.92;7.68;;;;;;;25.54;100.00;100907.53;4989054;28;20042;-45
2023/09/11 09:42:00;;;;;;;13.57;7.22;;;;;;;25.57;100.00;100909.34;4988931;28;20571;-47
2023/09/11 09:44:37;;;;;;;14.73;7.43;;;;;;;25.57;100.00;100900.81;4986290;28;20060;-46
2023/09/11 09:47:09;;;;;;;14.70;7.28;;;;;;;25.56;100.00;100902.13;4988950;28;20132;-45
2023/09/11 09:49:56;;;;;;;14.48;8.07;;;;;;;25.53;100.00;100892.53;4993332;28;20061;-46
2023/09/11 09:52:28;;;;;;;17.42;7.38;;;;;;;25.53;100.00;100898.25;4987325;28;20042;-45
2023/09/11 09:55:02;;;;;;;16.15;7.47;;;;;;;25.56;100.00;100896.41;4990527;28;20054;-47
2023/09/11 09:57:28;;;;;;;13.82;7.40;;;;;;;25.54;100.00;100888.41;4995051;28;20052;-46
2023/09/11 09:59:58;;;;;;;14.30;7.03;;;;;;;25.59;100.00;100884.78;4988633;28;20054;-45
2023/09/11 10:02:26;;;;;;;18.98;8.02;;;;;;;25.57;100.00;100889.41;4986938;28;20051;-47
2023/09/11 10:04:55;;;;;;;17.65;7.40;;;;;;;25.51;100.00;100883.72;4988894;28;20050;-47
2023/09/11 10:07:40;;;;;;;16.00;7.80;;;;;;;25.53;100.00;100877.53;4983256;28;20081;-45
2023/09/11 10:10:20;;;;;;;23.88;7.85;;;;;;;25.54;100.00;100877.00;4994737;28;20504;-45
2023/09/11 10:12:50;;;;;;;19.67;7.38;;;;;;;25.58;100.00;100880.38;4991287;28;20100;-45
2023/09/11 10:15:17;;;;;;;15.50;7.43;;;;;;;25.57;100.00;100875.97;4991164;28;20100;-47
2023/09/11 10:17:43;;;;;;;15.73;6.82;;;;;;;25.55;100.00;100875.72;4992055;28;20097;-45
2023/09/11 10:20:11;;;;;;;15.40;7.90;;;;;;;25.58;100.00;100877.53;4992210;28;20112;-47
2023/09/11 10:22:37;;;;;;;14.55;6.97;;;;;;;25.57;100.00;100872.34;4992233;28;20070;-47
2023/09/11 10:25:04;;;;;;;15.38;6.53;;;;;;;25.58;100.00;100871.81;4992253;28;20113;-45
2023/09/11 10:27:32;;;;;;;14.38;6.85;;;;;;;25.59;100.00;100862.00;4996944;28;20702;-47
2023/09/11 10:30:08;;;;;;;14.63;7.13;;;;;;;25.59;100.00;100862.00;4991439;28;20054;-44
2023/09/11 10:33:04;;;;;;;14.80;7.15;;;;;;;25.58;100.00;100862.53;4992223;28;20042;-48
2023/09/11 10:35:38;;;;;;;14.63;6.95;;;;;;;25.59;100.00;100859.16;4991888;28;20069;-46
2023/09/11 10:38:07;;;;;;;14.10;6.82;;;;;;;25.61;100.00;100862.25;4991599;28;20046;-45
2023/09/11 10:40:35;;;;;;;15.45;6.68;;;;;;;25.58;100.00;100857.59;4995364;28;20134;-44
2023/09/11 10:43:02;;;;;;;15.50;6.50;;;;;;;25.53;100.00;100855.53;4989352;28;20082;-48
2023/09/11 10:45:34;;;;;;;12.23;6.57;;;;;;;25.56;100.00;100853.72;4990525;28;20050;-47
2023/09/11 10:48:04;;;;;;;15.20;7.15;;;;;;;25.57;100.00;100852.41;4997427;28;20546;-46
2023/09/11 10:50:36;;;;;;;13.73;6.65;;;;;;;25.58;100.00;100840.50;4996466;28;20057;-46
2023/09/11 10:53:07;;;;;;;15.77;7.03;;;;;;;25.58;100.00;100846.19;4992713;28;20046;-47
2023/09/11 10:55:35;;;;;;;15.75;7.45;;;;;;;25.57;100.00;100849.56;4991325;28;20042;-47
2023/09/11 10:58:05;;;;;;;13.50;6.80;;;;;;;25.57;100.00;100838.97;4999398;28;20053;-45
2023/09/11 11:00:38;;;;;;;15.45;6.85;;;;;;;25.61;100.00;100850.88;4991122;28;20575;-46
2023/09/11 11:03:05;;;;;;;14.23;7.53;;;;;;;25.59;100.00;100844.94;4985922;28;20471;-46
2023/09/11 11:05:32;;;;;;;14.07;6.47;;;;;;;25.59;100.00;100849.84;4989419;28;20038;-47
2023/09/11 11:08:01;;;;;;;12.95;6.78;;;;;;;25.59;100.00;100850.63;4988139;28;20042;-46
2023/09/11 11:10:27;;;;;;;13.65;6.47;;;;;;;25.60;100.00;100849.31;4990263;28;20054;-46
2023/09/11 11:13:06;;;;;;;11.57;6.47;;;;;;;25.60;100.00;100852.16;4989449;28;20505;-48
2023/09/11 11:15:33;;;;;;;15.20;7.20;;;;;;;25.61;100.00;100850.88;4991129;28;20053;-45